<?xml version='1.0' encoding='UTF-8'?>
<gpx xmlns="http://www.topografix.com/GPX/1/1" creator="www.balnam.be" version="1.1" xmlns:xsi="http://www.w3.org/2001/XMLSchema-instance" xsi:schemaLocation="http://www.topografix.com/GPX/1/1 http://www.topografix.com/GPX/1/1/gpx.xsd">
<trk>
<name>lsoso41</name>
<cmt>q</cmt>
<desc>Stoumont Chemin n°41 Roua</desc>
<link href="https://chemins.be/stoumont/chemin/41"/><trkseg>
<trkpt lat="50.412330" lon="5.806712"><time>2026-05-02T20:28:07Z</time></trkpt>
<trkpt lat="50.411668" lon="5.808643"><time>2026-05-02T20:38:07Z</time></trkpt>
<trkpt lat="50.411378" lon="5.810283"><time>2026-05-02T20:48:07Z</time></trkpt>
</trkseg></trk>
<trk>
<name>lsoso41</name>
<cmt>r</cmt>
<desc>Stoumont Chemin n°41 Roua</desc>
<link href="https://chemins.be/stoumont/chemin/41"/><trkseg>
<trkpt lat="50.411378" lon="5.810283"><time>2026-05-02T20:48:07Z</time></trkpt>
<trkpt lat="50.411559" lon="5.810763"><time>2026-05-02T20:58:07Z</time></trkpt>
</trkseg></trk>
<trk>
<name>lsoso41</name>
<cmt>v</cmt>
<desc>Stoumont Chemin n°41 Roua</desc>
<link href="https://chemins.be/stoumont/chemin/41"/><trkseg>
<trkpt lat="50.411559" lon="5.810763"><time>2026-05-02T20:58:07Z</time></trkpt>
<trkpt lat="50.412033" lon="5.811493"><time>2026-05-02T21:08:07Z</time></trkpt>
<trkpt lat="50.412140" lon="5.811894"><time>2026-05-02T21:18:07Z</time></trkpt>
<trkpt lat="50.412247" lon="5.812062"><time>2026-05-02T21:28:07Z</time></trkpt>
<trkpt lat="50.412276" lon="5.812281"><time>2026-05-02T21:38:07Z</time></trkpt>
<trkpt lat="50.412235" lon="5.814218"><time>2026-05-02T21:48:07Z</time></trkpt>
<trkpt lat="50.412184" lon="5.814461"><time>2026-05-02T21:58:07Z</time></trkpt>
<trkpt lat="50.412114" lon="5.814781"><time>2026-05-02T22:08:07Z</time></trkpt>
<trkpt lat="50.412074" lon="5.814991"><time>2026-05-02T22:18:07Z</time></trkpt>
<trkpt lat="50.412044" lon="5.815211"><time>2026-05-02T22:28:07Z</time></trkpt>
<trkpt lat="50.412034" lon="5.815421"><time>2026-05-02T22:38:07Z</time></trkpt>
<trkpt lat="50.412054" lon="5.815641"><time>2026-05-02T22:48:07Z</time></trkpt>
<trkpt lat="50.412100" lon="5.815853"><time>2026-05-02T22:58:07Z</time></trkpt>
<trkpt lat="50.411542" lon="5.816943"><time>2026-05-02T23:08:07Z</time></trkpt>
</trkseg></trk>
<trk>
<name>lsoso41</name>
<cmt>q</cmt>
<desc>Stoumont Chemin n°41 Roua</desc>
<link href="https://chemins.be/stoumont/chemin/41"/><trkseg>
<trkpt lat="50.411542" lon="5.816943"><time>2026-05-02T23:08:07Z</time></trkpt>
<trkpt lat="50.411324" lon="5.817072"><time>2026-05-02T23:18:07Z</time></trkpt>
<trkpt lat="50.410623" lon="5.819647"><time>2026-05-02T23:28:07Z</time></trkpt>
</trkseg></trk>
<trk>
<name>lsoso41</name>
<cmt>v</cmt>
<desc>Stoumont Chemin n°41 Roua</desc>
<link href="https://chemins.be/stoumont/chemin/41"/><trkseg>
<trkpt lat="50.410623" lon="5.819647"><time>2026-05-02T23:28:07Z</time></trkpt>
<trkpt lat="50.410427" lon="5.821381"><time>2026-05-02T23:38:07Z</time></trkpt>
<trkpt lat="50.410329" lon="5.821901"><time>2026-05-02T23:48:07Z</time></trkpt>
</trkseg></trk>
<trk>
<name>lsoso41</name>
<cmt>d</cmt>
<desc>Stoumont Chemin n°41 Roua</desc>
<link href="https://chemins.be/stoumont/chemin/41"/><trkseg>
<trkpt lat="50.410329" lon="5.821901"><time>2026-05-02T23:48:07Z</time></trkpt>
<trkpt lat="50.409989" lon="5.823715"><time>2026-05-02T23:58:07Z</time></trkpt>
<trkpt lat="50.409625" lon="5.824582"><time>2026-05-03T00:08:07Z</time></trkpt>
</trkseg></trk>
<trk>
<name>lsoso41</name>
<cmt>r</cmt>
<desc>Stoumont Chemin n°41 Roua</desc>
<link href="https://chemins.be/stoumont/chemin/41"/><trkseg>
<trkpt lat="50.409625" lon="5.824582"><time>2026-05-03T00:08:07Z</time></trkpt>
<trkpt lat="50.410022" lon="5.825964"><time>2026-05-03T00:18:07Z</time></trkpt>
<trkpt lat="50.410252" lon="5.827620"><time>2026-05-03T00:28:07Z</time></trkpt>
</trkseg>
</trk>
</gpx>